Flight Track Log - Related Links

Times and Time Zones

All times are in EDT time to prevent confusion due to time zone crossing. See the AM311 flight status page for this flight to view local times or setup timezone preferences in your user account.

Time Position Orientation Groundspeed Altitude Reporting Facility
EDT Latitude Longitude Course Direction KTS MPH feet Rate Location/Type
Fri 08:55:24 AM -38.0701 146.8595 285° West 14,000  Level Aus
Fri 08:56:31 AM -38.0511 146.7670 288° West 14,000 -3,550 Level Aus
Fri 08:57:24 AM -38.0497 146.7614 285° West 171 197 6,900 -4,889 Descending Aus
Fri 08:57:52 AM -38.0450 146.7390 285° West 167 192 7,400 1,138 Climbing FlightAware
Fri 08:58:22 AM -38.0390 146.7070 283° West 190 219 8,000 1,418 Climbing FlightAware
Fri 08:58:47 AM -38.0330 146.6790 285° West 189 217 8,700 2,000 Climbing FlightAware
Fri 08:59:04 AM -38.0281 146.6579 285° West 182 209 9,400 1,600 Climbing Aus
Fri 08:59:17 AM -38.0260 146.6470 285° West 188 216 9,500 1,371 Climbing FlightAware
Fri 08:59:39 AM -38.0206 146.6205 285° West 183 211 10,200 1,333 Climbing Aus
Fri 09:00:02 AM -38.0160 146.5990 285° West 197 227 10,500 1,143 Climbing FlightAware
Fri 09:00:42 AM -38.0070 146.5530 284° West 199 229 11,400 1,425 Climbing FlightAware
Fri 09:01:22 AM -37.9980 146.5100 285° West 196 226 12,400 1,522 Climbing FlightAware
Fri 09:01:49 AM -37.9908 146.4751 285° West 191 220 13,100 1,333 Climbing Aus
Fri 09:02:07 AM -37.9870 146.4580 285° West 200 230 13,400 1,019 Climbing FlightAware
Fri 09:02:42 AM -37.9790 146.4190 285° West 207 238 14,000 450 Climbing FlightAware
Fri 09:03:27 AM -37.9670 146.3610 285° West 237 273 14,000 78 Level FlightAware
Fri 09:03:59 AM -37.9570 146.3124 285° West 238 274 14,100  Climbing Aus
Fri 09:04:12 AM -37.9540 146.2980 285° West 245 282 14,000 -113 Descending FlightAware
Fri 09:04:52 AM -37.9420 146.2440 286° West 244 281 14,000  Level FlightAware
Fri 09:05:22 AM -37.9330 146.2020 285° West 243 280 14,000  Level FlightAware
Fri 09:05:57 AM -37.9230 146.1540 285° West 241 277 14,000  Level FlightAware
Fri 09:06:27 AM -37.9150 146.1120 284° West 241 277 14,000 85 Level FlightAware
Fri 09:07:08 AM -37.9038 146.0501 284° West 239 275 14,100  Climbing Aus
Fri 09:07:17 AM -37.9020 146.0430 284° West 241 277 14,000 -111 Descending FlightAware
Fri 09:08:02 AM -37.8900 145.9810 284° West 240 276 14,000  Level FlightAware
Fri 09:08:42 AM -37.8790 145.9270 284° West 241 277 14,000  Level FlightAware
Fri 09:09:22 AM -37.8690 145.8720 284° West 239 275 14,000 146 Level FlightAware
Fri 09:09:23 AM -37.8673 145.8648 284° West 237 273 14,100 -1,067 Climbing Aus
Fri 09:10:07 AM -37.8560 145.8050 284° West 263 303 13,200 -1,300 Descending FlightAware
Fri 09:10:23 AM -37.8506 145.7767 284° West 262 302 12,800 -1,500 Descending Aus
Fri 09:10:47 AM -37.8440 145.7450 284° West 273 314 12,200 -1,477 Descending FlightAware
Fri 09:11:28 AM -37.8310 145.6762 284° West 271 312 11,200 -1,600 Descending Aus
Fri 09:11:32 AM -37.8310 145.6750 284° West 275 316 11,000 -1,500 Descending FlightAware
Fri 09:12:12 AM -37.8190 145.6130 284° West 270 311 10,100 -1,377 Descending FlightAware
Fri 09:12:33 AM -37.8107 145.5766 284° West 267 307 9,600 -1,400 Descending Aus
Fri 09:12:42 AM -37.8100 145.5670 284° West 269 310 9,400 -1,077 Descending FlightAware
Fri 09:13:12 AM -37.8010 145.5210 284° West 255 293 8,900 -667 Descending FlightAware
Fri 09:13:27 AM -37.7970 145.4990 283° West 246 283 8,900  Level FlightAware
Fri 09:13:47 AM -37.7910 145.4710 285° West 239 275 8,900  Level FlightAware
Fri 09:14:07 AM -37.7860 145.4460 284° West 235 270 8,900  Level FlightAware
Fri 09:14:17 AM -37.7840 145.4330 281° West 233 268 8,900 167 Level FlightAware
Fri 09:14:43 AM -37.7755 145.3944 281° West 231 266 9,000  Climbing Aus
Fri 09:14:47 AM -37.7760 145.3910 281° West 230 265 8,900 -632 Descending FlightAware
Fri 09:15:02 AM -37.7720 145.3720 285° West 234 269 8,800 -933 Descending FlightAware
Fri 09:15:32 AM -37.7640 145.3310 284° West 248 285 8,200 -1,440 Descending FlightAware
Fri 09:15:52 AM -37.7564 145.2975 284° West 252 290 7,600 -1,600 Descending Aus
Fri 09:16:02 AM -37.7550 145.2870 284° West 263 303 7,400 -1,714 Descending FlightAware
Fri 09:16:27 AM -37.7470 145.2500 285° West 266 306 6,600 -1,800 Descending FlightAware
Fri 09:16:42 AM -37.7370 145.2310 304° West 270 311 6,200 -1,650 Descending FlightAware
Fri 09:17:07 AM -37.7180 145.2000 308° West 270 311 5,500 -1,650 Descending FlightAware
Fri 09:17:22 AM -37.7060 145.1810 309° West 270 311 5,100 -1,600 Descending FlightAware
Fri 09:17:52 AM -37.6900 145.1400 296° West 254 292 4,300 -1,200 Descending FlightAware
Fri 09:18:17 AM -37.6870 145.1050 276° West 248 285 4,000 -764 Descending FlightAware
Fri 09:18:47 AM -37.6840 145.0630 275° West 239 275 3,600 -800 Descending FlightAware
Fri 09:19:02 AM -37.6815 145.0366 275° West 239 275 3,400 -1,200 Descending Aus
Fri 09:19:12 AM -37.6810 145.0260 275° West 241 277 3,100 -1,800 Descending FlightAware
Fri 09:19:42 AM -37.6780 144.9880 276° West 245 282 2,200 -1,091 Descending FlightAware
Fri 09:20:07 AM -37.6743 144.9503 276° West 215 247 2,100 -600 Descending Aus
Fri 09:20:12 AM -37.6740 144.9480 276° West 198 228 1,900 -1,029 Descending FlightAware
Fri 09:20:42 AM -37.6790 144.9180 258° West 151 174 1,500 -873 Descending FlightAware
Fri 09:21:07 AM -37.6890 144.9030 230° Southwest 133 153 1,100 -1,050 Descending FlightAware
Fri 09:21:22 AM -37.6980 144.9000 195° South 129 148 800 -1,200 Descending FlightAware
Fri 09:21:27 AM -37.7010 144.9000 180° South 124 143 700 -686 Descending FlightAware
Fri 09:21:57 AM -37.7140 144.9000 180° South 105 121 400 -533 Descending FlightAware
Fri 09:22:12 AM -37.7238 144.9010 180° South 101 116 300 -400 Descending Aus

Login

Don't have an account? Register now (free) for customized features, flight alerts, and more!